Time;durP1;ratioP1;P1;durP2;ratioP2;P2;SDS_P1;SDS_P2;PMS_P1;PMS_P2;Temp;Humidity;BMP_temperature;BMP_pressure;BME280_temperature;BME280_humidity;BME280_pressure;Samples;Min_cycle;Max_cycle;Signal;HPM_P1;HPM_P2
2022/07/26 00:00:35;;;;;;;10.65;5.45;;;;;;;;;;4885960;29;20033;-72
2022/07/26 00:03:01;;;;;;;8.07;5.55;;;;;;;;;;4894779;29;20028;-74
2022/07/26 00:05:29;;;;;;;6.63;5.10;;;;;;;;;;4885037;29;20025;-74
2022/07/26 00:08:09;;;;;;;7.22;5.57;;;;;;;;;;4879589;29;20025;-74
2022/07/26 00:10:35;;;;;;;6.22;5.25;;;;;;;;;;4887273;29;20028;-72
2022/07/26 00:13:01;;;;;;;8.15;5.55;;;;;;;;;;4885284;29;20519;-73
2022/07/26 00:15:27;;;;;;;12.52;6.03;;;;;;;;;;4886476;29;20036;-74
2022/07/26 00:17:53;;;;;;;8.60;5.28;;;;;;;;;;4879306;29;20036;-74
2022/07/26 00:20:19;;;;;;;8.07;6.20;;;;;;;;;;4879584;29;20029;-75
2022/07/26 00:22:48;;;;;;;6.30;5.40;;;;;;;;;;4879165;29;20445;-75
2022/07/26 00:25:14;;;;;;;9.18;5.85;;;;;;;;;;4887643;29;20428;-76
2022/07/26 00:27:40;;;;;;;7.30;4.75;;;;;;;;;;4895793;29;20040;-74
2022/07/26 00:30:08;;;;;;;5.68;5.00;;;;;;;;;;4895227;29;20076;-74
2022/07/26 00:32:36;;;;;;;7.35;5.40;;;;;;;;;;4898380;29;20049;-73
2022/07/26 00:35:02;;;;;;;8.10;5.20;;;;;;;;;;4896494;29;20033;-73
2022/07/26 00:37:28;;;;;;;6.00;5.18;;;;;;;;;;4897907;29;20020;-74
2022/07/26 00:39:54;;;;;;;7.93;5.40;;;;;;;;;;4897696;29;20032;-73
2022/07/26 00:42:21;;;;;;;7.68;5.55;;;;;;;;;;4897484;29;20051;-73
2022/07/26 00:44:47;;;;;;;7.65;5.43;;;;;;;;;;4896056;29;20049;-74
2022/07/26 00:47:13;;;;;;;8.43;5.63;;;;;;;;;;4896364;29;20049;-73
2022/07/26 00:49:40;;;;;;;7.32;5.43;;;;;;;;;;4897763;29;20060;-74
2022/07/26 00:52:06;;;;;;;7.40;5.25;;;;;;;;;;4897674;29;20028;-72
2022/07/26 00:54:32;;;;;;;7.55;5.53;;;;;;;;;;4896836;29;20021;-73
2022/07/26 00:56:59;;;;;;;7.90;5.63;;;;;;;;;;4896749;29;20086;-72
2022/07/26 00:59:25;;;;;;;6.85;5.35;;;;;;;;;;4897345;29;20058;-74
2022/07/26 01:01:51;;;;;;;8.25;5.45;;;;;;;;;;4897345;29;20083;-73
2022/07/26 01:04:17;;;;;;;5.82;5.00;;;;;;;;;;4897476;29;20036;-73
2022/07/26 01:06:43;;;;;;;8.43;5.78;;;;;;;;;;4896216;29;20032;-73
2022/07/26 01:09:10;;;;;;;8.57;5.57;;;;;;;;;;4897518;29;20027;-72
2022/07/26 01:11:36;;;;;;;6.45;5.00;;;;;;;;;;4897400;29;20077;-72
2022/07/26 01:14:02;;;;;;;5.65;5.03;;;;;;;;;;4896709;29;20114;-72
2022/07/26 01:16:28;;;;;;;6.28;4.72;;;;;;;;;;4897436;29;20054;-72
2022/07/26 01:18:54;;;;;;;10.52;5.70;;;;;;;;;;4897512;29;20093;-72
2022/07/26 01:21:21;;;;;;;6.97;5.45;;;;;;;;;;4897375;29;20031;-72
2022/07/26 01:23:47;;;;;;;8.43;5.50;;;;;;;;;;4897436;29;20396;-72
2022/07/26 01:26:13;;;;;;;7.13;6.20;;;;;;;;;;4897071;29;20020;-71
2022/07/26 01:28:39;;;;;;;7.68;5.78;;;;;;;;;;4897133;29;20107;-72
2022/07/26 01:31:07;;;;;;;6.65;5.40;;;;;;;;;;4895996;29;20096;-71
2022/07/26 01:33:33;;;;;;;7.53;5.05;;;;;;;;;;4897222;29;20103;-72
2022/07/26 01:36:00;;;;;;;8.15;5.90;;;;;;;;;;4897359;29;20037;-72
2022/07/26 01:38:26;;;;;;;5.63;5.05;;;;;;;;;;4897185;29;20035;-73
2022/07/26 01:40:52;;;;;;;8.90;5.97;;;;;;;;;;4896074;29;20043;-72
2022/07/26 01:43:18;;;;;;;6.68;4.97;;;;;;;;;;4896632;29;20429;-72
2022/07/26 01:45:45;;;;;;;7.82;5.75;;;;;;;;;;4896820;29;20060;-73
2022/07/26 01:48:11;;;;;;;5.90;5.30;;;;;;;;;;4897283;29;20032;-73
2022/07/26 01:50:37;;;;;;;9.10;5.57;;;;;;;;;;4897000;29;20028;-72
2022/07/26 01:53:03;;;;;;;7.07;5.63;;;;;;;;;;4897309;29;20032;-72
2022/07/26 01:55:29;;;;;;;8.65;5.65;;;;;;;;;;4895740;29;20036;-73
2022/07/26 01:57:56;;;;;;;6.18;5.53;;;;;;;;;;4896883;29;20036;-72
2022/07/26 02:00:22;;;;;;;7.13;5.95;;;;;;;;;;4896721;29;20077;-73
2022/07/26 02:02:48;;;;;;;6.57;5.88;;;;;;;;;;4895631;29;20496;-71
2022/07/26 02:05:17;;;;;;;6.65;5.60;;;;;;;;;;4897123;29;20425;-72
2022/07/26 02:07:43;;;;;;;10.70;6.18;;;;;;;;;;4897710;29;20422;-72
2022/07/26 02:10:10;;;;;;;9.05;6.15;;;;;;;;;;4899053;29;20459;-72
2022/07/26 02:12:36;;;;;;;7.30;5.75;;;;;;;;;;4900372;29;20025;-72
2022/07/26 02:15:03;;;;;;;7.70;5.88;;;;;;;;;;4900040;29;20029;-72
2022/07/26 02:17:29;;;;;;;7.88;6.22;;;;;;;;;;4900231;29;20400;-69
2022/07/26 02:19:55;;;;;;;8.07;6.20;;;;;;;;;;4900224;29;20107;-72
2022/07/26 02:22:21;;;;;;;7.32;5.88;;;;;;;;;;4900127;29;20460;-73
2022/07/26 02:24:48;;;;;;;7.70;5.57;;;;;;;;;;4900135;29;20047;-71
2022/07/26 02:27:14;;;;;;;8.65;5.35;;;;;;;;;;4899646;29;20169;-70
2022/07/26 02:29:41;;;;;;;5.93;5.32;;;;;;;;;;4899591;29;20542;-72
2022/07/26 02:32:07;;;;;;;7.63;5.43;;;;;;;;;;4900161;29;20029;-72
2022/07/26 02:34:33;;;;;;;6.70;6.03;;;;;;;;;;4899716;29;20039;-72
2022/07/26 02:36:59;;;;;;;8.05;5.53;;;;;;;;;;4899944;29;20029;-72
2022/07/26 02:39:26;;;;;;;8.30;6.13;;;;;;;;;;4900014;29;20025;-72
2022/07/26 02:41:56;;;;;;;8.48;5.30;;;;;;;;;;4912616;29;20033;-71
2022/07/26 02:44:22;;;;;;;7.97;5.80;;;;;;;;;;4899269;29;20083;-73
2022/07/26 02:46:49;;;;;;;8.52;5.38;;;;;;;;;;4899574;29;20028;-72
2022/07/26 02:49:15;;;;;;;6.20;5.50;;;;;;;;;;4899723;29;20020;-73
2022/07/26 02:51:41;;;;;;;7.78;5.65;;;;;;;;;;4899667;29;20032;-73
2022/07/26 02:54:07;;;;;;;6.97;5.43;;;;;;;;;;4899690;29;20379;-72
2022/07/26 02:56:33;;;;;;;5.93;5.32;;;;;;;;;;4898362;29;20056;-72
2022/07/26 02:58:59;;;;;;;8.13;5.65;;;;;;;;;;4899360;29;20079;-72
2022/07/26 03:01:25;;;;;;;6.13;5.30;;;;;;;;;;4898246;29;20495;-71
2022/07/26 03:03:51;;;;;;;7.68;5.50;;;;;;;;;;4897918;29;20052;-72
2022/07/26 03:06:18;;;;;;;7.00;5.93;;;;;;;;;;4899803;29;20416;-72
2022/07/26 03:08:44;;;;;;;7.38;5.60;;;;;;;;;;4899339;29;20068;-71
2022/07/26 03:11:10;;;;;;;7.07;5.38;;;;;;;;;;4899509;29;20024;-71
2022/07/26 03:13:36;;;;;;;8.05;5.82;;;;;;;;;;4899360;29;20036;-71
2022/07/26 03:16:02;;;;;;;6.93;5.00;;;;;;;;;;4897788;29;20029;-72
2022/07/26 03:18:28;;;;;;;10.32;6.03;;;;;;;;;;4899235;29;20029;-71
2022/07/26 03:20:54;;;;;;;10.35;6.15;;;;;;;;;;4897172;29;20036;-72
2022/07/26 03:23:20;;;;;;;7.28;5.55;;;;;;;;;;4899933;29;20036;-71
2022/07/26 03:25:46;;;;;;;7.88;5.55;;;;;;;;;;4898863;29;20025;-72
2022/07/26 03:28:13;;;;;;;7.78;5.68;;;;;;;;;;4898814;29;20032;-70
2022/07/26 03:30:39;;;;;;;8.43;5.63;;;;;;;;;;4898705;29;20028;-70
2022/07/26 03:33:05;;;;;;;6.20;5.32;;;;;;;;;;4898700;29;20028;-69
2022/07/26 03:35:31;;;;;;;9.07;5.97;;;;;;;;;;4898823;29;20080;-70
2022/07/26 03:37:57;;;;;;;6.82;5.50;;;;;;;;;;4898945;29;20059;-70
2022/07/26 03:40:23;;;;;;;10.38;5.55;;;;;;;;;;4898959;29;20032;-70
2022/07/26 03:42:50;;;;;;;6.10;5.00;;;;;;;;;;4898698;29;20100;-71
2022/07/26 03:45:16;;;;;;;7.18;5.95;;;;;;;;;;4898062;29;20124;-70
2022/07/26 03:47:43;;;;;;;6.32;5.45;;;;;;;;;;4898408;29;20484;-71
2022/07/26 03:50:09;;;;;;;8.75;5.53;;;;;;;;;;4898445;29;20048;-70
2022/07/26 03:52:35;;;;;;;7.63;6.10;;;;;;;;;;4898525;29;20079;-71
2022/07/26 03:56:27;;;;;;;8.25;5.70;;;;;;;;;;4898367;29;20033;-71
2022/07/26 03:57:48;;;;;;;7.65;5.22;;;;;;;;;;4898142;29;20033;-70
2022/07/26 04:00:14;;;;;;;8.18;5.60;;;;;;;;;;4898169;29;20031;-71
2022/07/26 04:02:40;;;;;;;6.13;5.53;;;;;;;;;;4898125;29;20492;-72
2022/07/26 04:05:06;;;;;;;13.10;6.80;;;;;;;;;;4898349;29;20388;-72
2022/07/26 04:07:32;;;;;;;12.68;6.20;;;;;;;;;;4902912;29;20485;-73
2022/07/26 04:09:59;;;;;;;5.70;5.13;;;;;;;;;;4898069;29;20499;-74
2022/07/26 04:12:25;;;;;;;7.78;6.05;;;;;;;;;;4896902;29;20063;-75
2022/07/26 04:14:51;;;;;;;8.35;5.45;;;;;;;;;;4898392;29;20379;-73
2022/07/26 04:17:17;;;;;;;9.07;5.95;;;;;;;;;;4897982;29;20032;-72
2022/07/26 04:19:43;;;;;;;6.82;5.43;;;;;;;;;;4898044;29;20020;-71
2022/07/26 04:22:09;;;;;;;7.05;6.03;;;;;;;;;;4898060;29;20044;-73
2022/07/26 04:24:35;;;;;;;9.77;6.05;;;;;;;;;;4897903;29;20053;-71
2022/07/26 04:27:01;;;;;;;7.22;5.93;;;;;;;;;;4897701;29;20601;-72
2022/07/26 04:29:27;;;;;;;6.72;6.03;;;;;;;;;;4896321;29;20047;-72
2022/07/26 04:31:53;;;;;;;7.32;6.53;;;;;;;;;;4897305;29;20064;-73
2022/07/26 04:34:19;;;;;;;6.43;5.68;;;;;;;;;;4897631;29;20025;-73
2022/07/26 04:36:45;;;;;;;6.85;6.15;;;;;;;;;;4897891;29;20016;-72
2022/07/26 04:39:11;;;;;;;10.90;6.30;;;;;;;;;;4897757;29;20033;-71
2022/07/26 04:41:37;;;;;;;14.35;9.10;;;;;;;;;;4897656;29;20033;-72
2022/07/26 04:44:03;;;;;;;11.30;7.28;;;;;;;;;;4897106;29;20522;-72
2022/07/26 04:46:29;;;;;;;10.23;7.55;;;;;;;;;;4896301;29;20053;-72
2022/07/26 04:48:55;;;;;;;13.05;8.60;;;;;;;;;;4897827;29;20024;-72
2022/07/26 04:51:21;;;;;;;10.15;8.02;;;;;;;;;;4897836;29;20033;-72
2022/07/26 04:53:48;;;;;;;9.43;6.82;;;;;;;;;;4897301;29;20583;-73
2022/07/26 04:56:14;;;;;;;12.05;7.38;;;;;;;;;;4896377;29;20105;-74
2022/07/26 04:58:40;;;;;;;7.07;6.13;;;;;;;;;;4897275;29;20025;-72
2022/07/26 05:01:06;;;;;;;6.78;6.07;;;;;;;;;;4897467;29;20080;-72
2022/07/26 05:03:33;;;;;;;10.35;6.60;;;;;;;;;;4897304;29;20036;-72
2022/07/26 05:05:59;;;;;;;8.27;6.53;;;;;;;;;;4897456;29;20088;-72
2022/07/26 05:08:25;;;;;;;8.43;5.65;;;;;;;;;;4897728;29;20040;-73
2022/07/26 05:10:51;;;;;;;8.73;6.03;;;;;;;;;;4897352;29;20020;-73
2022/07/26 05:13:18;;;;;;;6.93;5.95;;;;;;;;;;4897383;29;20033;-72
2022/07/26 05:15:44;;;;;;;8.90;6.82;;;;;;;;;;4896835;29;20024;-72
2022/07/26 05:18:10;;;;;;;7.60;6.05;;;;;;;;;;4897027;29;20032;-73
2022/07/26 05:20:36;;;;;;;7.03;6.20;;;;;;;;;;4897406;29;20021;-73
2022/07/26 05:23:03;;;;;;;8.52;7.40;;;;;;;;;;4897076;29;20040;-72
2022/07/26 05:25:29;;;;;;;9.75;7.10;;;;;;;;;;4897195;29;20438;-72
2022/07/26 05:27:55;;;;;;;9.30;6.82;;;;;;;;;;4896903;29;20112;-72
2022/07/26 05:30:21;;;;;;;9.35;6.80;;;;;;;;;;4896686;29;20474;-72
2022/07/26 05:32:47;;;;;;;8.05;7.10;;;;;;;;;;4895073;29;20036;-73
2022/07/26 05:35:14;;;;;;;8.50;6.57;;;;;;;;;;4895491;29;20028;-73
2022/07/26 05:37:40;;;;;;;8.60;6.15;;;;;;;;;;4897119;29;20025;-72
2022/07/26 05:40:06;;;;;;;13.38;6.43;;;;;;;;;;5084679;23;20082;-70
2022/07/26 05:42:32;;;;;;;9.45;6.38;;;;;;;;;;4956580;28;20031;-71
2022/07/26 05:44:59;;;;;;;8.90;5.97;;;;;;;;;;4976952;28;20079;-72
2022/07/26 05:47:25;;;;;;;8.30;6.10;;;;;;;;;;4977101;28;20023;-72
2022/07/26 05:49:51;;;;;;;9.60;5.63;;;;;;;;;;4976865;28;20095;-72
2022/07/26 05:52:17;;;;;;;7.78;6.75;;;;;;;;;;4976959;28;20023;-67
2022/07/26 05:54:43;;;;;;;7.72;6.93;;;;;;;;;;4977110;28;20078;-68
2022/07/26 05:57:09;;;;;;;12.68;6.97;;;;;;;;;;4976787;28;20038;-69
2022/07/26 05:59:35;;;;;;;7.57;6.22;;;;;;;;;;4976279;28;20058;-70
2022/07/26 06:02:01;;;;;;;9.05;6.05;;;;;;;;;;4976746;28;20035;-71
2022/07/26 06:04:27;;;;;;;7.90;5.80;;;;;;;;;;4969093;28;20023;-71
2022/07/26 06:06:54;;;;;;;16.42;9.55;;;;;;;;;;4976831;28;20030;-72
2022/07/26 06:09:20;;;;;;;18.10;11.18;;;;;;;;;;4976814;28;20462;-72
2022/07/26 06:11:46;;;;;;;14.23;10.70;;;;;;;;;;4976584;28;20030;-72
2022/07/26 06:14:12;;;;;;;16.52;12.63;;;;;;;;;;4976646;28;20026;-72
2022/07/26 06:16:38;;;;;;;11.65;7.63;;;;;;;;;;4967958;28;20027;-73
2022/07/26 06:19:04;;;;;;;10.77;6.85;;;;;;;;;;4972023;28;20393;-73
2022/07/26 06:21:31;;;;;;;22.58;17.73;;;;;;;;;;4955076;28;20043;-72
2022/07/26 06:23:57;;;;;;;16.30;8.57;;;;;;;;;;4976066;28;20035;-73
2022/07/26 06:26:23;;;;;;;8.57;7.75;;;;;;;;;;4974988;28;20046;-74
2022/07/26 06:28:52;;;;;;;11.77;8.60;;;;;;;;;;4959835;28;20034;-73
2022/07/26 06:31:18;;;;;;;11.10;8.98;;;;;;;;;;4939309;29;20103;-73
2022/07/26 06:33:44;;;;;;;9.23;6.97;;;;;;;;;;4956624;29;20518;-73
2022/07/26 06:36:10;;;;;;;13.27;6.47;;;;;;;;;;4956997;29;20127;-72
2022/07/26 06:38:36;;;;;;;10.45;7.65;;;;;;;;;;4947844;28;20050;-72
2022/07/26 06:41:02;;;;;;;12.30;6.97;;;;;;;;;;4942625;29;20155;-73
2022/07/26 06:43:28;;;;;;;9.27;6.40;;;;;;;;;;4956763;29;20035;-70
2022/07/26 06:45:55;;;;;;;9.32;6.85;;;;;;;;;;4956311;29;20058;-70
2022/07/26 06:48:21;;;;;;;15.75;7.32;;;;;;;;;;4956761;29;20031;-70
2022/07/26 06:50:47;;;;;;;11.35;7.20;;;;;;;;;;4956645;29;20083;-72
2022/07/26 06:53:13;;;;;;;12.77;9.27;;;;;;;;;;4956783;29;20087;-71
2022/07/26 06:55:40;;;;;;;9.88;7.32;;;;;;;;;;4955325;28;20023;-72
2022/07/26 06:58:06;;;;;;;13.60;7.43;;;;;;;;;;4937515;29;20027;-72
2022/07/26 07:00:32;;;;;;;13.80;7.32;;;;;;;;;;4937721;29;20126;-73
2022/07/26 07:02:58;;;;;;;17.42;7.57;;;;;;;;;;4936579;29;20440;-73
2022/07/26 07:05:24;;;;;;;14.32;7.60;;;;;;;;;;4952604;29;20040;-67
2022/07/26 07:07:50;;;;;;;16.83;7.32;;;;;;;;;;4941260;29;20027;-67
2022/07/26 07:10:17;;;;;;;18.45;7.60;;;;;;;;;;4956182;29;20392;-66
2022/07/26 07:12:43;;;;;;;13.68;8.25;;;;;;;;;;4956252;29;20385;-65
2022/07/26 07:15:10;;;;;;;20.05;10.52;;;;;;;;;;4956093;29;20019;-66
2022/07/26 07:17:36;;;;;;;11.13;8.00;;;;;;;;;;4956121;29;20032;-65
2022/07/26 07:20:03;;;;;;;22.65;9.07;;;;;;;;;;4956181;29;20035;-66
2022/07/26 07:22:30;;;;;;;15.05;11.05;;;;;;;;;;4956246;29;20035;-66
2022/07/26 07:24:56;;;;;;;32.88;18.10;;;;;;;;;;4956090;29;20036;-66
2022/07/26 07:27:22;;;;;;;28.55;19.80;;;;;;;;;;4947065;29;20340;-65
2022/07/26 07:29:48;;;;;;;97.30;63.35;;;;;;;;;;4951726;29;20024;-68
2022/07/26 07:32:15;;;;;;;30.75;17.60;;;;;;;;;;4938464;29;20035;-70
2022/07/26 07:34:41;;;;;;;40.88;28.48;;;;;;;;;;4953659;29;20027;-70
2022/07/26 07:37:07;;;;;;;36.97;24.05;;;;;;;;;;4941193;29;20032;-68
2022/07/26 07:39:33;;;;;;;26.42;19.23;;;;;;;;;;4955237;28;20093;-71
2022/07/26 07:41:59;;;;;;;46.47;31.92;;;;;;;;;;4955646;29;20474;-71
2022/07/26 07:44:25;;;;;;;56.10;37.58;;;;;;;;;;4955613;29;20112;-72
2022/07/26 07:46:51;;;;;;;59.25;38.28;;;;;;;;;;4955328;29;20491;-71
2022/07/26 07:49:17;;;;;;;39.20;26.65;;;;;;;;;;4955551;29;20390;-70
2022/07/26 07:51:43;;;;;;;26.48;18.52;;;;;;;;;;4955341;29;20023;-71
2022/07/26 07:54:09;;;;;;;17.50;10.48;;;;;;;;;;4955542;29;20069;-72
2022/07/26 07:56:36;;;;;;;54.08;38.50;;;;;;;;;;4955382;29;20081;-67
2022/07/26 07:59:02;;;;;;;30.35;19.95;;;;;;;;;;4955817;29;20062;-72
2022/07/26 08:01:28;;;;;;;62.15;43.35;;;;;;;;;;4954786;29;20478;-71
2022/07/26 08:03:54;;;;;;;64.35;41.45;;;;;;;;;;4955006;29;20058;-71
2022/07/26 08:06:20;;;;;;;64.30;44.33;;;;;;;;;;4955040;28;20498;-72
2022/07/26 08:08:46;;;;;;;109.63;74.15;;;;;;;;;;4955135;28;20097;-72
2022/07/26 08:11:12;;;;;;;50.67;35.67;;;;;;;;;;4955117;29;20020;-72
2022/07/26 08:13:38;;;;;;;69.13;47.25;;;;;;;;;;4955094;29;20022;-69
2022/07/26 08:16:05;;;;;;;65.25;46.72;;;;;;;;;;4954791;29;20054;-72
2022/07/26 08:18:31;;;;;;;69.60;45.65;;;;;;;;;;4954675;29;20020;-70
2022/07/26 08:20:58;;;;;;;86.85;59.92;;;;;;;;;;4937603;29;20565;-70
2022/07/26 08:23:24;;;;;;;81.30;56.25;;;;;;;;;;4954758;29;20035;-73
2022/07/26 08:25:50;;;;;;;107.15;75.95;;;;;;;;;;4937766;29;20035;-72
2022/07/26 08:28:17;;;;;;;95.25;65.40;;;;;;;;;;4941229;29;20114;-72
2022/07/26 08:30:43;;;;;;;56.50;40.08;;;;;;;;;;4954859;29;20051;-71
2022/07/26 08:33:09;;;;;;;87.88;64.13;;;;;;;;;;4954597;29;20478;-72
2022/07/26 08:35:35;;;;;;;77.95;55.22;;;;;;;;;;4954963;29;20038;-69
2022/07/26 08:38:01;;;;;;;66.45;45.65;;;;;;;;;;4954756;29;20039;-69
2022/07/26 08:40:27;;;;;;;39.28;27.52;;;;;;;;;;4954425;29;20872;-70
2022/07/26 08:42:55;;;;;;;73.25;53.55;;;;;;;;;;4954812;29;20035;-72
2022/07/26 08:45:24;;;;;;;70.82;53.22;;;;;;;;;;4954726;29;20070;-72
2022/07/26 08:47:51;;;;;;;69.75;51.20;;;;;;;;;;4954478;29;20114;-68
2022/07/26 08:50:17;;;;;;;89.97;65.90;;;;;;;;;;4969247;28;20110;-71
2022/07/26 08:52:43;;;;;;;30.15;20.70;;;;;;;;;;4954678;29;20030;-72
2022/07/26 08:55:10;;;;;;;73.28;58.05;;;;;;;;;;4954589;29;20030;-72
2022/07/26 08:57:36;;;;;;;72.72;53.15;;;;;;;;;;4953703;29;20118;-73
2022/07/26 09:00:19;;;;;;;59.15;44.35;;;;;;;;;;4954471;29;20028;-71
2022/07/26 09:02:46;;;;;;;67.97;49.75;;;;;;;;;;4937109;29;20043;-72
2022/07/26 09:05:12;;;;;;;28.90;15.93;;;;;;;;;;4930696;29;20066;-72
2022/07/26 09:07:39;;;;;;;48.35;40.42;;;;;;;;;;4954223;29;20031;-72
2022/07/26 09:10:12;;;;;;;39.97;29.48;;;;;;;;;;4954090;29;20042;-73
2022/07/26 09:12:39;;;;;;;30.20;15.10;;;;;;;;;;4954230;29;20480;-71
2022/07/26 09:15:06;;;;;;;46.08;33.88;;;;;;;;;;4954275;29;20046;-72
2022/07/26 09:17:43;;;;;;;45.65;31.42;;;;;;;;;;4945883;28;20024;-75
2022/07/26 09:20:14;;;;;;;52.53;36.70;;;;;;;;;;4932305;29;20019;-73
2022/07/26 09:22:59;;;;;;;104.40;86.82;;;;;;;;;;4938097;29;20028;-69
2022/07/26 09:25:25;;;;;;;25.80;13.43;;;;;;;;;;4938569;29;20094;-73
2022/07/26 09:27:51;;;;;;;41.97;31.55;;;;;;;;;;4938655;29;20023;-74
2022/07/26 09:30:18;;;;;;;35.35;10.80;;;;;;;;;;4938552;29;20027;-73
2022/07/26 09:32:57;;;;;;;36.65;26.08;;;;;;;;;;4938589;29;20056;-73
2022/07/26 09:35:23;;;;;;;21.80;8.80;;;;;;;;;;4938563;29;20031;-73
2022/07/26 09:37:49;;;;;;;18.15;13.55;;;;;;;;;;4938637;29;20121;-76
2022/07/26 09:40:16;;;;;;;24.52;20.65;;;;;;;;;;4938049;29;20059;-71
2022/07/26 09:42:56;;;;;;;16.50;11.23;;;;;;;;;;4938371;29;20545;-72
2022/07/26 09:45:22;;;;;;;17.77;13.02;;;;;;;;;;4938342;29;20031;-77
2022/07/26 09:47:48;;;;;;;19.88;16.20;;;;;;;;;;4938158;29;20027;-75
2022/07/26 09:50:16;;;;;;;27.02;14.77;;;;;;;;;;4936999;29;20036;-70
2022/07/26 09:53:01;;;;;;;20.52;14.80;;;;;;;;;;4932633;29;20470;-72
2022/07/26 09:55:27;;;;;;;20.80;14.05;;;;;;;;;;4938137;29;20079;-70
2022/07/26 09:57:53;;;;;;;15.60;11.52;;;;;;;;;;4938288;29;20494;-73
2022/07/26 10:00:19;;;;;;;16.45;13.02;;;;;;;;;;4938099;29;20043;-73
2022/07/26 10:02:45;;;;;;;17.35;8.43;;;;;;;;;;4937015;29;20035;-72
2022/07/26 10:05:11;;;;;;;19.25;11.68;;;;;;;;;;4932023;29;20028;-69
2022/07/26 10:07:38;;;;;;;9.95;7.53;;;;;;;;;;4930764;29;20064;-67
2022/07/26 10:10:07;;;;;;;16.27;9.23;;;;;;;;;;4938102;29;20024;-69
2022/07/26 10:12:34;;;;;;;14.48;10.70;;;;;;;;;;4937769;29;20028;-68
2022/07/26 10:15:00;;;;;;;13.85;10.50;;;;;;;;;;4937715;29;20019;-73
2022/07/26 10:17:26;;;;;;;16.77;8.20;;;;;;;;;;4937562;29;20020;-74
2022/07/26 10:19:56;;;;;;;13.65;10.07;;;;;;;;;;4937738;29;20488;-71
2022/07/26 10:22:26;;;;;;;17.20;9.87;;;;;;;;;;4937621;29;20039;-69
2022/07/26 10:24:56;;;;;;;13.05;9.25;;;;;;;;;;4933327;29;20031;-73
2022/07/26 10:27:52;;;;;;;14.03;9.70;;;;;;;;;;4936135;29;20028;-71
2022/07/26 10:30:18;;;;;;;11.52;8.68;;;;;;;;;;4881244;29;20048;-67
2022/07/26 10:32:50;;;;;;;15.50;8.73;;;;;;;;;;4877966;29;20029;-72
2022/07/26 10:35:48;;;;;;;10.75;6.90;;;;;;;;;;4894592;29;20103;-72
2022/07/26 10:38:22;;;;;;;12.68;7.13;;;;;;;;;;4787480;29;20047;-74
2022/07/26 10:40:56;;;;;;;11.43;6.97;;;;;;;;;;4772516;29;20050;-74
2022/07/26 10:43:22;;;;;;;11.10;7.75;;;;;;;;;;4772055;30;20065;-72
2022/07/26 10:45:48;;;;;;;16.38;7.80;;;;;;;;;;4787869;29;20039;-72
2022/07/26 10:48:23;;;;;;;13.70;9.00;;;;;;;;;;4787471;29;20377;-73
2022/07/26 10:50:50;;;;;;;19.55;8.20;;;;;;;;;;4787677;29;20031;-72
2022/07/26 10:53:17;;;;;;;13.63;8.00;;;;;;;;;;4787332;29;20039;-71
2022/07/26 10:55:47;;;;;;;10.05;7.20;;;;;;;;;;4787479;29;20479;-72
2022/07/26 10:58:14;;;;;;;9.85;7.03;;;;;;;;;;4772467;29;20514;-72
2022/07/26 11:00:40;;;;;;;11.93;7.43;;;;;;;;;;4772426;30;20028;-73
2022/07/26 11:03:06;;;;;;;11.05;7.57;;;;;;;;;;4787159;29;20044;-73
2022/07/26 11:05:33;;;;;;;9.85;6.78;;;;;;;;;;4788445;29;20027;-75
2022/07/26 11:08:09;;;;;;;8.82;7.82;;;;;;;;;;4838622;29;20179;-72
2022/07/26 11:10:39;;;;;;;7.57;6.78;;;;;;;;;;4823127;29;20043;-75
2022/07/26 11:13:12;;;;;;;8.32;6.88;;;;;;;;;;4846533;29;20040;-73
2022/07/26 11:15:40;;;;;;;7.72;6.80;;;;;;;;;;4955482;29;20027;-75
2022/07/26 11:18:11;;;;;;;12.75;7.13;;;;;;;;;;4956578;28;20102;-75
2022/07/26 11:20:37;;;;;;;9.75;6.55;;;;;;;;;;4952298;29;20028;-76
2022/07/26 11:23:04;;;;;;;7.50;6.80;;;;;;;;;;4951516;28;20035;-75
2022/07/26 11:25:30;;;;;;;8.93;6.72;;;;;;;;;;4952817;29;20026;-75
2022/07/26 11:27:59;;;;;;;9.38;7.72;;;;;;;;;;4925459;29;20126;-75
2022/07/26 11:30:25;;;;;;;8.82;6.70;;;;;;;;;;4956017;29;20026;-76
2022/07/26 11:32:52;;;;;;;8.13;7.03;;;;;;;;;;4932062;29;20028;-76
2022/07/26 11:35:19;;;;;;;11.07;6.68;;;;;;;;;;4950241;29;20020;-75
2022/07/26 11:37:55;;;;;;;15.95;11.57;;;;;;;;;;4938255;29;20375;-75
2022/07/26 11:40:40;;;;;;;17.00;15.20;;;;;;;;;;4946048;28;20159;-77
2022/07/26 11:43:06;;;;;;;51.05;45.55;;;;;;;;;;4936244;29;20040;-77
2022/07/26 11:45:32;;;;;;;69.93;62.40;;;;;;;;;;4936179;29;20024;-78
2022/07/26 11:47:58;;;;;;;49.05;43.67;;;;;;;;;;4947494;28;20035;-77
2022/07/26 11:50:24;;;;;;;26.27;23.00;;;;;;;;;;4941796;29;20027;-76
2022/07/26 11:52:51;;;;;;;14.30;11.95;;;;;;;;;;4955578;29;20039;-74
2022/07/26 11:55:27;;;;;;;21.10;15.35;;;;;;;;;;4940838;29;20028;-79
2022/07/26 11:57:53;;;;;;;11.50;8.10;;;;;;;;;;4917860;29;20028;-77
2022/07/26 12:00:19;;;;;;;24.98;21.38;;;;;;;;;;4946227;29;20036;-75
2022/07/26 12:02:45;;;;;;;15.50;13.80;;;;;;;;;;4933810;29;20091;-72
2022/07/26 12:05:13;;;;;;;20.60;15.82;;;;;;;;;;4941609;29;20051;-72
2022/07/26 12:07:51;;;;;;;16.60;14.38;;;;;;;;;;4939830;29;20036;-71
2022/07/26 12:10:17;;;;;;;11.68;9.10;;;;;;;;;;4945956;29;20046;-74
2022/07/26 12:12:43;;;;;;;11.90;10.02;;;;;;;;;;4932595;29;20036;-74
2022/07/26 12:15:10;;;;;;;20.92;18.00;;;;;;;;;;4928845;29;20479;-74
2022/07/26 12:17:38;;;;;;;11.75;10.52;;;;;;;;;;4948449;29;20039;-74
2022/07/26 12:20:15;;;;;;;25.55;22.33;;;;;;;;;;4917769;29;20036;-75
2022/07/26 12:22:52;;;;;;;18.95;15.30;;;;;;;;;;4933015;29;20517;-72
2022/07/26 12:25:25;;;;;;;153.10;127.45;;;;;;;;;;4931849;29;20059;-73
2022/07/26 12:27:51;;;;;;;22.02;15.93;;;;;;;;;;4946211;28;20390;-72
2022/07/26 12:30:18;;;;;;;15.27;11.20;;;;;;;;;;4928294;29;20103;-71
2022/07/26 12:32:44;;;;;;;73.90;59.15;;;;;;;;;;4927389;29;20028;-72
2022/07/26 12:35:12;;;;;;;34.67;28.88;;;;;;;;;;4950261;28;20049;-72
2022/07/26 12:37:47;;;;;;;27.42;24.15;;;;;;;;;;4939897;29;20059;-74
2022/07/26 12:40:14;;;;;;;13.82;8.98;;;;;;;;;;4934759;29;20067;-72
2022/07/26 12:42:50;;;;;;;28.30;22.80;;;;;;;;;;4954654;29;20037;-72
2022/07/26 12:45:17;;;;;;;18.42;13.80;;;;;;;;;;4940092;29;20059;-73
2022/07/26 12:47:45;;;;;;;18.88;14.57;;;;;;;;;;4954561;29;20035;-71
2022/07/26 12:50:11;;;;;;;20.02;13.48;;;;;;;;;;4954679;29;20031;-74
2022/07/26 12:52:38;;;;;;;14.98;13.32;;;;;;;;;;4932557;29;20102;-71
2022/07/26 12:55:05;;;;;;;15.52;12.45;;;;;;;;;;4941841;29;20072;-72
2022/07/26 12:57:32;;;;;;;14.18;12.02;;;;;;;;;;4931970;29;20031;-72
2022/07/26 12:59:59;;;;;;;37.53;28.75;;;;;;;;;;4933245;29;20109;-72
2022/07/26 13:02:26;;;;;;;36.75;26.77;;;;;;;;;;4929949;29;20451;-72
2022/07/26 13:04:52;;;;;;;15.45;13.77;;;;;;;;;;4930207;29;20616;-72
2022/07/26 13:07:19;;;;;;;11.48;8.50;;;;;;;;;;4922660;29;20115;-73
2022/07/26 13:09:46;;;;;;;17.05;15.23;;;;;;;;;;4951495;28;20086;-71
2022/07/26 13:12:12;;;;;;;19.95;15.52;;;;;;;;;;4940389;29;20441;-72
2022/07/26 13:14:39;;;;;;;18.45;15.35;;;;;;;;;;4931257;29;20070;-72
2022/07/26 13:17:05;;;;;;;16.10;13.32;;;;;;;;;;4940005;29;20019;-72
2022/07/26 13:19:33;;;;;;;16.90;14.70;;;;;;;;;;4935011;29;20092;-71
2022/07/26 13:24:30;;;;;;;12.95;9.27;;;;;;;;;;4970949;28;20046;-71
2022/07/26 13:26:57;;;;;;;16.60;14.90;;;;;;;;;;4971202;28;20476;-72
2022/07/26 13:29:23;;;;;;;23.67;18.80;;;;;;;;;;4967559;28;20023;-72
2022/07/26 13:31:49;;;;;;;11.20;9.48;;;;;;;;;;4970184;28;20027;-74
2022/07/26 13:34:16;;;;;;;21.05;18.85;;;;;;;;;;4970136;28;20066;-73
2022/07/26 13:36:42;;;;;;;13.55;11.85;;;;;;;;;;4974428;28;20027;-73
2022/07/26 13:39:08;;;;;;;16.63;14.98;;;;;;;;;;4973567;28;20019;-73
2022/07/26 13:41:34;;;;;;;15.80;14.07;;;;;;;;;;4973519;28;20030;-73
2022/07/26 13:44:01;;;;;;;12.40;11.10;;;;;;;;;;4973261;28;20031;-73
2022/07/26 13:46:29;;;;;;;12.52;9.00;;;;;;;;;;4973706;28;20027;-73
2022/07/26 13:48:58;;;;;;;13.80;11.65;;;;;;;;;;4973347;28;20022;-73
2022/07/26 13:54:15;;;;;;;8.32;6.47;;;;;;;;;;4973135;28;20500;-72
2022/07/26 13:56:41;;;;;;;8.82;6.05;;;;;;;;;;4973506;28;20018;-73
2022/07/26 13:59:08;;;;;;;8.32;5.95;;;;;;;;;;4973339;28;20101;-73
2022/07/26 14:01:34;;;;;;;10.90;7.13;;;;;;;;;;4973620;28;20490;-71
2022/07/26 14:04:02;;;;;;;7.25;6.05;;;;;;;;;;4974584;28;20030;-73
2022/07/26 14:06:28;;;;;;;8.00;6.93;;;;;;;;;;4976984;28;20027;-73
2022/07/26 14:08:54;;;;;;;10.38;7.35;;;;;;;;;;4959761;28;20031;-73
2022/07/26 14:11:20;;;;;;;9.48;7.00;;;;;;;;;;4976793;28;20035;-73
2022/07/26 14:13:46;;;;;;;6.97;5.45;;;;;;;;;;4976861;28;20031;-73
2022/07/26 14:16:12;;;;;;;6.53;5.93;;;;;;;;;;4976811;28;20030;-73
2022/07/26 14:18:38;;;;;;;9.30;6.35;;;;;;;;;;4976628;28;20031;-73
2022/07/26 14:21:04;;;;;;;11.38;8.38;;;;;;;;;;4976156;28;20027;-73
2022/07/26 14:23:31;;;;;;;10.80;7.60;;;;;;;;;;4976374;28;20058;-77
2022/07/26 14:25:57;;;;;;;16.90;7.05;;;;;;;;;;4976771;28;20389;-76
2022/07/26 14:28:23;;;;;;;7.55;5.95;;;;;;;;;;4975174;28;20150;-77
2022/07/26 14:30:49;;;;;;;9.07;6.03;;;;;;;;;;4974306;28;20034;-73
2022/07/26 14:33:15;;;;;;;13.43;6.60;;;;;;;;;;4976393;28;20494;-73
2022/07/26 14:35:42;;;;;;;11.65;7.00;;;;;;;;;;4976368;28;20371;-73